Hanoverton, Ohio
Current Conditions -  °F | °C
As of 8:51 AM on Friday 31 Oct 2014 (Local Time) from KCAK Reporting Station
Overcast Overcast  
Wind Chill: 44°   Ceiling: 5000
Heat Index: 44°   Visibility: 10mi
Dew Point: 38°   Wind: 3mph
Humidity: 79%   Direction: 200°SSW
Pressure: 29.94"   Gusts: NA
Location:  40.75°N, 80.94°W
Report Text: KCAK 311251Z 20003KT 10SM BKN050 OVC070 07/03 A2994 RMK AO2 SLP144 T00670033
Loading
Personal Weather Stations






























Interactive Weather Map
Tropical Storm Tracking
New forecast layout! Learn more

10-Day Weather Forecast

Advertisements
Track Severe Weather on mobile